Time;durP1;ratioP1;P1;durP2;ratioP2;P2;SDS_P1;SDS_P2;PMS_P1;PMS_P2;Temp;Humidity;BMP_temperature;BMP_pressure;BME280_temperature;BME280_humidity;BME280_pressure;Samples;Min_cycle;Max_cycle;Signal;HPM_P1;HPM_P2
2022/08/01 00:02:20;;;;;;;;;;;;;;;-140.72;100.00;52500.44;5023730;28;20019;-66
2022/08/01 00:04:47;;;;;;;;;;;;;;;-140.72;100.00;52480.16;5035607;28;20205;-67
2022/08/01 00:07:13;;;;;;;;;;;;;;;-140.72;100.00;52510.59;5018088;28;19917;-66
2022/08/01 00:09:38;;;;;;;;;;;;;;;-140.72;100.00;52504.50;5035769;28;20017;-66
2022/08/01 00:12:04;;;;;;;;;;;;;;;-140.72;100.00;52500.44;5030943;28;20072;-68
2022/08/01 00:14:30;;;;;;;;;;;;;;;-140.72;100.00;52539.00;5035065;28;20265;-67
2022/08/01 00:16:55;;;;;;;;;;;;;;;-140.72;100.00;52524.78;5025576;28;19968;-67
2022/08/01 00:19:20;;;;;;;;;;;;;;;-140.72;100.00;52504.50;5022659;28;20299;-66
2022/08/01 00:21:45;;;;;;;;;;;;;;;-140.72;100.00;52510.59;5031340;28;20278;-67
2022/08/01 00:24:11;;;;;;;;;;;;;;;-140.72;100.00;52526.81;5022771;28;20319;-66
2022/08/01 00:26:36;;;;;;;;;;;;;;;-140.72;100.00;52484.19;5034350;28;20004;-67
2022/08/01 00:29:01;;;;;;;;;;;;;;;-140.72;100.00;52465.94;5034818;28;19933;-67
2022/08/01 00:31:26;;;;;;;;;;;;;;;-140.72;100.00;52508.56;5034643;28;20322;-66
2022/08/01 00:33:52;;;;;;;;;;;;;;;-140.72;100.00;52498.41;5028826;28;19921;-66
2022/08/01 00:36:17;;;;;;;;;;;;;;;-140.72;100.00;52472.03;5016630;28;19928;-66
2022/08/01 00:38:42;;;;;;;;;;;;;;;-140.72;100.00;52532.91;5013029;28;19917;-66
2022/08/01 00:41:07;;;;;;;;;;;;;;;-140.72;100.00;52498.41;5031327;28;20297;-67
2022/08/01 00:43:33;;;;;;;;;;;;;;;-140.72;100.00;52520.72;5036426;28;19959;-66
2022/08/01 00:45:58;;;;;;;;;;;;;;;-140.72;100.00;52506.53;5028621;28;19964;-66
2022/08/01 00:48:23;;;;;;;;;;;;;;;-140.72;100.00;52512.59;5032048;28;19918;-66
2022/08/01 00:50:49;;;;;;;;;;;;;;;-140.72;100.00;52502.47;5032827;28;19928;-65
2022/08/01 00:53:14;;;;;;;;;;;;;;;-140.72;100.00;52504.50;5016882;28;20368;-66
2022/08/01 00:55:40;;;;;;;;;;;;;;;-140.72;100.00;52532.91;5025913;28;20435;-67
2022/08/01 00:58:05;;;;;;;;;;;;;;;-140.72;100.00;52508.56;5023345;28;19925;-65
2022/08/01 01:00:30;;;;;;;;;;;;;;;-140.72;100.00;52518.69;5026443;28;19932;-65
2022/08/01 01:02:55;;;;;;;;;;;;;;;-140.72;100.00;52541.03;5017748;28;19917;-67
2022/08/01 01:05:21;;;;;;;;;;;;;;;-140.72;100.00;52534.94;5023432;28;20009;-66
2022/08/01 01:07:58;;;;;;;;;;;;;;;-140.72;100.00;52524.78;5027035;28;20391;-66
2022/08/01 01:10:40;;;;;;;;;;;;;;;-140.72;100.00;52500.44;5029673;28;19924;-66
2022/08/01 01:13:16;;;;;;;;;;;;;;;-140.72;100.00;52587.69;5020107;28;19924;-66
2022/08/01 01:15:55;;;;;;;;;;;;;;;-140.72;100.00;52488.25;5020803;28;20382;-68
2022/08/01 01:18:23;;;;;;;;;;;;;;;-140.72;100.00;52547.09;5034009;28;19925;-67
2022/08/01 01:20:53;;;;;;;;;;;;;;;-140.72;100.00;52520.72;5033961;28;19940;-66
2022/08/01 01:23:18;;;;;;;;;;;;;;;-140.72;100.00;52506.53;5027562;28;19924;-67
2022/08/01 01:25:44;;;;;;;;;;;;;;;-140.72;100.00;52518.69;5014935;28;20377;-67
2022/08/01 01:28:32;;;;;;;;;;;;;;;-140.72;100.00;52543.03;5030117;28;19917;-67
2022/08/01 01:30:58;;;;;;;;;;;;;;;-140.72;100.00;52532.91;5028023;28;19917;-68
2022/08/01 01:33:25;;;;;;;;;;;;;;;-140.72;100.00;52518.69;5024211;28;19917;-66
2022/08/01 01:35:52;;;;;;;;;;;;;;;-140.72;100.00;52545.06;5028540;28;19969;-66
2022/08/01 01:38:19;;;;;;;;;;;;;;;-140.72;100.00;52506.53;5029286;28;19940;-66
2022/08/01 01:40:46;;;;;;;;;;;;;;;-140.72;100.00;52589.72;5042383;28;20261;-67
2022/08/01 01:43:12;;;;;;;;;;;;;;;-140.72;100.00;52553.19;5024935;28;20008;-67
2022/08/01 01:45:38;;;;;;;;;;;;;;;-140.72;100.00;52496.38;5037372;28;19947;-66
2022/08/01 01:48:05;;;;;;;;;;;;;;;-140.72;100.00;52557.25;5024717;28;19924;-67
2022/08/01 01:50:31;;;;;;;;;;;;;;;-140.72;100.00;52524.78;5025476;28;20312;-66
2022/08/01 01:52:57;;;;;;;;;;;;;;;-140.72;100.00;52526.81;5013598;28;19965;-65
2022/08/01 01:55:24;;;;;;;;;;;;;;;-140.72;100.00;52508.56;5029556;28;20337;-68
2022/08/01 01:57:50;;;;;;;;;;;;;;;-140.72;100.00;52557.25;5030868;28;19918;-66
2022/08/01 02:00:15;;;;;;;;;;;;;;;-140.72;100.00;52541.03;5017918;28;19924;-68
2022/08/01 02:02:42;;;;;;;;;;;;;;;-140.72;100.00;52494.34;5024530;28;19921;-66
2022/08/01 02:05:09;;;;;;;;;;;;;;;-140.72;100.00;52528.84;5018807;28;20376;-67
2022/08/01 02:07:35;;;;;;;;;;;;;;;-140.72;100.00;52528.84;5030608;28;19917;-66
2022/08/01 02:10:03;;;;;;;;;;;;;;;-140.72;100.00;52498.41;5037549;28;20003;-67
2022/08/01 02:12:31;;;;;;;;;;;;;;;-140.72;100.00;52561.31;5037149;28;19960;-68
2022/08/01 02:14:56;;;;;;;;;;;;;;;-140.72;100.00;52569.44;5043890;28;20376;-67
2022/08/01 02:17:23;;;;;;;;;;;;;;;-140.72;100.00;52559.28;5027291;28;19992;-67
2022/08/01 02:19:49;;;;;;;;;;;;;;;-140.72;100.00;52520.72;5037547;28;19981;-66
2022/08/01 02:22:19;;;;;;;;;;;;;;;-140.72;100.00;52569.44;5026757;28;19965;-67
2022/08/01 02:24:59;;;;;;;;;;;;;;;-140.72;100.00;52557.25;5025372;28;19917;-67
2022/08/01 02:27:25;;;;;;;;;;;;;;;-140.72;100.00;52516.66;4999288;28;19940;-68
2022/08/01 02:30:01;;;;;;;;;;;;;;;-140.72;100.00;52549.13;5037536;28;19917;-67
2022/08/01 02:51:56;;;;;;;;;;;;;;;-140.72;100.00;52591.75;5416886;23;19941;-72
2022/08/01 02:54:22;;;;;;;;;;;;;;;-140.72;100.00;52520.72;4992503;28;19926;-72
2022/08/01 02:56:48;;;;;;;;;;;;;;;-140.72;100.00;52569.44;4961082;28;19928;-72
2022/08/01 02:59:16;;;;;;;;;;;;;;;-140.72;100.00;52589.72;4966182;28;19926;-72
2022/08/01 03:01:42;;;;;;;;;;;;;;;-140.72;100.00;52545.06;4993103;28;19925;-71
2022/08/01 03:04:09;;;;;;;;;;;;;;;-140.72;100.00;52561.31;4989726;28;19945;-72
2022/08/01 03:06:35;;;;;;;;;;;;;;;-140.72;100.00;52628.28;4977688;28;19929;-72
2022/08/01 03:09:02;;;;;;;;;;;;;;;-140.72;100.00;52569.44;4969330;28;19918;-72
2022/08/01 03:11:29;;;;;;;;;;;;;;;-140.72;100.00;52585.66;4957452;28;19993;-72
2022/08/01 03:13:55;;;;;;;;;;;;;;;-140.72;100.00;52557.25;4960181;28;19932;-72
2022/08/01 03:16:21;;;;;;;;;;;;;;;-140.72;100.00;52587.69;4968451;28;19918;-71
2022/08/01 03:18:48;;;;;;;;;;;;;;;-140.72;100.00;52585.66;4989354;28;19925;-71
2022/08/01 03:21:14;;;;;;;;;;;;;;;-140.72;100.00;52573.50;4978238;28;19922;-72
2022/08/01 03:23:40;;;;;;;;;;;;;;;-140.72;100.00;52561.31;4977281;28;19919;-72
2022/08/01 03:26:05;;;;;;;;;;;;;;;-140.72;100.00;52607.97;4970752;28;19918;-71
2022/08/01 03:28:31;;;;;;;;;;;;;;;-140.72;100.00;52573.50;4961414;28;19923;-72
2022/08/01 03:30:58;;;;;;;;;;;;;;;-140.72;100.00;52573.50;4960258;28;19957;-72
2022/08/01 03:33:23;;;;;;;;;;;;;;;-140.72;100.00;52557.25;4965393;28;19918;-72
2022/08/01 03:35:53;;;;;;;;;;;;;;;-140.72;100.00;52541.03;4966680;28;19925;-72
2022/08/01 03:38:20;;;;;;;;;;;;;;;-140.72;100.00;52573.50;4975913;28;19925;-72
2022/08/01 03:40:48;;;;;;;;;;;;;;;-140.72;100.00;52555.22;4967725;28;19941;-72
2022/08/01 03:43:30;;;;;;;;;;;;;;;-140.72;100.00;52585.66;4974361;28;19926;-75
2022/08/01 03:45:58;;;;;;;;;;;;;;;-140.72;100.00;52575.50;4968300;28;19958;-72
2022/08/01 03:48:27;;;;;;;;;;;;;;;-140.72;100.00;52567.41;4984038;28;20293;-72
2022/08/01 03:50:54;;;;;;;;;;;;;;;-140.72;100.00;52583.63;4957012;28;20385;-72
2022/08/01 03:53:24;;;;;;;;;;;;;;;-140.72;100.00;52557.25;4991409;28;20016;-71
2022/08/01 03:55:50;;;;;;;;;;;;;;;-140.72;100.00;52569.44;4984710;28;19965;-71
2022/08/01 03:58:16;;;;;;;;;;;;;;;-140.72;100.00;52569.44;4972485;28;19918;-72
2022/08/01 04:00:41;;;;;;;;;;;;;;;-140.72;100.00;52587.69;4969398;28;20340;-71
2022/08/01 04:03:08;;;;;;;;;;;;;;;-140.72;100.00;52553.19;4987757;28;19918;-72
2022/08/01 04:05:33;;;;;;;;;;;;;;;-140.72;100.00;52601.91;4976343;28;19976;-70
2022/08/01 04:07:59;;;;;;;;;;;;;;;-140.72;100.00;52581.59;4988333;28;19917;-71
2022/08/01 04:10:25;;;;;;;;;;;;;;;-140.72;100.00;52557.25;4987280;28;20288;-72
2022/08/01 04:12:50;;;;;;;;;;;;;;;-140.72;100.00;52573.50;4983717;28;19930;-72
2022/08/01 04:15:16;;;;;;;;;;;;;;;-140.72;100.00;52571.47;4986439;28;19917;-73
2022/08/01 04:17:41;;;;;;;;;;;;;;;-140.72;100.00;52565.38;4968502;28;19924;-72
2022/08/01 04:20:06;;;;;;;;;;;;;;;-140.72;100.00;52549.13;4980394;28;19918;-71
2022/08/01 04:22:32;;;;;;;;;;;;;;;-140.72;100.00;52573.50;4987923;28;19918;-72
2022/08/01 04:24:59;;;;;;;;;;;;;;;-140.72;100.00;52575.50;4974878;28;19989;-72
2022/08/01 04:27:32;;;;;;;;;;;;;;;-140.72;100.00;52575.50;4991430;28;19918;-72
2022/08/01 04:29:58;;;;;;;;;;;;;;;-140.72;100.00;52561.31;4989982;28;19918;-72
2022/08/01 04:32:25;;;;;;;;;;;;;;;-140.72;100.00;52585.66;4975611;28;19926;-73
2022/08/01 04:34:50;;;;;;;;;;;;;;;-140.72;100.00;52573.50;4979506;28;19921;-71
2022/08/01 04:37:16;;;;;;;;;;;;;;;-140.72;100.00;52581.59;4971111;28;19964;-72
2022/08/01 04:39:42;;;;;;;;;;;;;;;-140.72;100.00;52573.50;4972178;28;19948;-72
2022/08/01 04:42:09;;;;;;;;;;;;;;;-140.72;100.00;52591.75;4972288;28;20441;-72
2022/08/01 04:44:34;;;;;;;;;;;;;;;-140.72;100.00;52569.44;4963597;28;19923;-71
2022/08/01 04:47:02;;;;;;;;;;;;;;;-140.72;100.00;52593.78;4988265;28;19926;-72
2022/08/01 04:49:29;;;;;;;;;;;;;;;-140.72;100.00;52585.66;4975363;28;19918;-72
2022/08/01 04:51:59;;;;;;;;;;;;;;;-140.72;100.00;52565.38;4986184;28;20436;-71
2022/08/01 04:54:25;;;;;;;;;;;;;;;-140.72;100.00;52577.53;4988038;28;19918;-72
2022/08/01 04:56:53;;;;;;;;;;;;;;;-140.72;100.00;52587.69;4957818;28;19925;-72
2022/08/01 05:02:02;;;;;;;;;;;;;;;-140.72;100.00;52573.50;4984525;28;19925;-71
2022/08/01 05:04:27;;;;;;;;;;;;;;;-140.72;100.00;52541.03;4959123;28;19919;-70
2022/08/01 05:06:52;;;;;;;;;;;;;;;-140.72;100.00;52555.22;4966061;28;19918;-72
2022/08/01 05:09:18;;;;;;;;;;;;;;;-140.72;100.00;52553.19;4975096;28;19922;-71
2022/08/01 05:11:43;;;;;;;;;;;;;;;-140.72;100.00;52577.53;4973790;28;20275;-72
2022/08/01 05:14:08;;;;;;;;;;;;;;;-140.72;100.00;52569.44;4987920;28;19938;-71
2022/08/01 05:16:33;;;;;;;;;;;;;;;-140.72;100.00;52587.69;4960342;28;19946;-72
2022/08/01 05:18:58;;;;;;;;;;;;;;;-140.72;100.00;52557.25;4961935;28;19955;-71
2022/08/01 05:21:24;;;;;;;;;;;;;;;-140.72;100.00;52526.81;4960365;28;19919;-72
2022/08/01 05:23:49;;;;;;;;;;;;;;;-140.72;100.00;52555.22;4958694;28;19918;-71
2022/08/01 05:26:14;;;;;;;;;;;;;;;-140.72;100.00;52547.09;4963705;28;20289;-72
2022/08/01 05:28:39;;;;;;;;;;;;;;;-140.72;100.00;52587.69;4960765;28;19919;-72
2022/08/01 05:31:05;;;;;;;;;;;;;;;-140.72;100.00;52532.91;4967932;28;20290;-71
2022/08/01 05:33:30;;;;;;;;;;;;;;;-140.72;100.00;52569.44;4977587;28;19925;-72
2022/08/01 05:35:55;;;;;;;;;;;;;;;-140.72;100.00;52553.19;4960643;28;19941;-72
2022/08/01 05:38:20;;;;;;;;;;;;;;;-140.72;100.00;52532.91;4972915;28;19918;-71
2022/08/01 05:40:45;;;;;;;;;;;;;;;-140.72;100.00;52567.41;4980024;28;19942;-71
2022/08/01 05:43:11;;;;;;;;;;;;;;;-140.72;100.00;52541.03;4976619;28;19958;-71
2022/08/01 05:45:36;;;;;;;;;;;;;;;-140.72;100.00;52553.19;4978248;28;20409;-72
2022/08/01 05:48:02;;;;;;;;;;;;;;;-140.72;100.00;52520.72;4976574;28;19965;-72
2022/08/01 05:50:27;;;;;;;;;;;;;;;-140.72;100.00;52534.94;4986922;28;19925;-72
2022/08/01 05:52:52;;;;;;;;;;;;;;;-140.72;100.00;52534.94;4996740;28;20305;-72
2022/08/01 05:55:17;;;;;;;;;;;;;;;-140.72;100.00;52541.03;4985159;28;20269;-71
2022/08/01 05:57:42;;;;;;;;;;;;;;;-140.72;100.00;52532.91;4985448;28;19919;-71
2022/08/01 06:00:08;;;;;;;;;;;;;;;-140.72;100.00;52534.94;4978070;28;20314;-72
2022/08/01 06:02:33;;;;;;;;;;;;;;;-140.72;100.00;52553.19;4978001;28;19922;-72
2022/08/01 06:04:58;;;;;;;;;;;;;;;-140.72;100.00;52534.94;4983796;28;19918;-72
2022/08/01 06:07:24;;;;;;;;;;;;;;;-140.72;100.00;52512.59;4984499;28;19960;-72
2022/08/01 06:09:49;;;;;;;;;;;;;;;-140.72;100.00;52486.22;4982867;28;19918;-72
2022/08/01 06:12:14;;;;;;;;;;;;;;;-140.72;100.00;52520.72;4982075;28;19925;-71
2022/08/01 06:14:39;;;;;;;;;;;;;;;-140.72;100.00;52522.75;4971562;28;19942;-72
2022/08/01 06:17:05;;;;;;;;;;;;;;;-140.72;100.00;52543.03;4972116;28;19922;-71
2022/08/01 06:19:30;;;;;;;;;;;;;;;-140.72;100.00;52549.13;4974707;28;19918;-72
2022/08/01 06:21:55;;;;;;;;;;;;;;;-140.72;100.00;52532.91;4972439;28;19918;-71
2022/08/01 06:24:22;;;;;;;;;;;;;;;-140.72;100.00;52498.41;4974598;28;19918;-72
2022/08/01 06:26:48;;;;;;;;;;;;;;;-140.72;100.00;52496.38;4991240;28;19924;-71
2022/08/01 06:29:13;;;;;;;;;;;;;;;-140.72;100.00;52510.59;4974699;28;19926;-70
2022/08/01 06:31:38;;;;;;;;;;;;;;;-140.72;100.00;52510.59;4977565;28;20030;-71
2022/08/01 06:34:03;;;;;;;;;;;;;;;-140.72;100.00;52492.31;4972667;28;19961;-71
2022/08/01 06:36:28;;;;;;;;;;;;;;;-140.72;100.00;52514.63;4971725;28;19958;-71
2022/08/01 06:38:54;;;;;;;;;;;;;;;-140.72;100.00;52522.75;4980094;28;19918;-69
2022/08/01 06:41:19;;;;;;;;;;;;;;;-140.72;100.00;52553.19;4982973;28;19918;-70
2022/08/01 06:43:44;;;;;;;;;;;;;;;-140.72;100.00;52534.94;4976068;28;20017;-70
2022/08/01 06:46:09;;;;;;;;;;;;;;;-140.72;100.00;52528.84;4975099;28;19918;-71
2022/08/01 06:48:39;;;;;;;;;;;;;;;-140.72;100.00;52516.66;4965884;28;20378;-70
2022/08/01 06:51:13;;;;;;;;;;;;;;;-140.72;100.00;52508.56;4977945;28;19922;-71
2022/08/01 06:53:38;;;;;;;;;;;;;;;-140.72;100.00;52524.78;4965053;28;20293;-71
2022/08/01 06:56:04;;;;;;;;;;;;;;;-140.72;100.00;52522.75;4990629;28;19921;-71
2022/08/01 06:58:29;;;;;;;;;;;;;;;-140.72;100.00;52526.81;4964561;28;19957;-71
2022/08/01 07:00:55;;;;;;;;;;;;;;;-140.72;100.00;52516.66;4977151;28;19918;-70
2022/08/01 07:03:20;;;;;;;;;;;;;;;-140.72;100.00;52512.59;4960448;28;20033;-71
2022/08/01 07:05:45;;;;;;;;;;;;;;;-140.72;100.00;52472.03;4958627;28;19925;-71
2022/08/01 07:08:10;;;;;;;;;;;;;;;-140.72;100.00;52547.09;4986398;28;19918;-71
2022/08/01 07:10:36;;;;;;;;;;;;;;;-140.72;100.00;52545.06;4967133;28;19957;-71
2022/08/01 07:13:01;;;;;;;;;;;;;;;-140.72;100.00;52547.09;4959022;28;19965;-71
2022/08/01 07:15:26;;;;;;;;;;;;;;;-140.72;100.00;52573.50;4956931;28;20421;-71
2022/08/01 07:17:52;;;;;;;;;;;;;;;-140.72;100.00;52573.50;4975688;28;19976;-71
2022/08/01 07:20:19;;;;;;;;;;;;;;;-140.72;100.00;52541.03;4967998;28;19926;-71
2022/08/01 07:22:44;;;;;;;;;;;;;;;-140.72;100.00;52581.59;4974720;28;19923;-72
2022/08/01 07:25:09;;;;;;;;;;;;;;;-140.72;100.00;52569.44;4974047;28;19941;-72
2022/08/01 07:27:35;;;;;;;;;;;;;;;-140.72;100.00;52581.59;4975901;28;19948;-72
2022/08/01 07:30:00;;;;;;;;;;;;;;;-140.72;100.00;52571.47;4986782;28;19926;-72
2022/08/01 07:32:26;;;;;;;;;;;;;;;-140.72;100.00;52545.06;4964684;28;19922;-72
2022/08/01 07:34:51;;;;;;;;;;;;;;;-140.72;100.00;52581.59;4985655;28;19922;-72
2022/08/01 07:37:16;;;;;;;;;;;;;;;-140.72;100.00;52569.44;4972989;28;20392;-71
2022/08/01 07:39:41;;;;;;;;;;;;;;;-140.72;100.00;52573.50;4977181;28;20423;-72
2022/08/01 07:42:06;;;;;;;;;;;;;;;-140.72;100.00;52605.94;4974899;28;19973;-72
2022/08/01 07:44:32;;;;;;;;;;;;;;;-140.72;100.00;52577.53;4978123;28;19925;-72
2022/08/01 07:46:57;;;;;;;;;;;;;;;-140.72;100.00;52541.03;4971634;28;19962;-71
2022/08/01 07:49:22;;;;;;;;;;;;;;;-140.72;100.00;52569.44;4975276;28;19925;-71
2022/08/01 07:51:48;;;;;;;;;;;;;;;-140.72;100.00;52585.66;4973813;28;20354;-71
2022/08/01 07:54:13;;;;;;;;;;;;;;;-140.72;100.00;52599.88;4974134;28;19949;-71
2022/08/01 07:56:38;;;;;;;;;;;;;;;-140.72;100.00;52561.31;4974825;28;19949;-72
2022/08/01 07:59:03;;;;;;;;;;;;;;;-140.72;100.00;52539.00;4973529;28;20009;-71
2022/08/01 08:01:29;;;;;;;;;;;;;;;-140.72;100.00;52563.34;4961987;28;19968;-72
2022/08/01 08:03:54;;;;;;;;;;;;;;;-140.72;100.00;52571.47;4976412;28;19918;-72
2022/08/01 08:06:19;;;;;;;;;;;;;;;-140.72;100.00;52597.84;4958904;28;19918;-71
2022/08/01 08:08:45;;;;;;;;;;;;;;;-140.72;100.00;52541.03;4969162;28;19922;-71
2022/08/01 08:11:10;;;;;;;;;;;;;;;-140.72;100.00;52561.31;4970307;28;19924;-71
2022/08/01 08:13:35;;;;;;;;;;;;;;;-140.72;100.00;52516.66;4969593;28;19954;-72
2022/08/01 08:16:00;;;;;;;;;;;;;;;-140.72;100.00;52553.19;4959998;28;19927;-71
2022/08/01 08:18:26;;;;;;;;;;;;;;;-140.72;100.00;52526.81;4967405;28;20366;-72
2022/08/01 08:20:51;;;;;;;;;;;;;;;-140.72;100.00;52504.50;4968912;28;19919;-72
2022/08/01 08:26:00;;;;;;;;;;;;;;;-140.72;100.00;52520.72;4976619;28;20294;-71
2022/08/01 08:28:25;;;;;;;;;;;;;;;-140.72;100.00;52496.38;4977701;28;19918;-72
2022/08/01 08:30:52;;;;;;;;;;;;;;;-140.72;100.00;52496.38;4976182;28;19930;-72
2022/08/01 08:33:18;;;;;;;;;;;;;;;-140.72;100.00;52482.16;4964023;28;19918;-73
2022/08/01 08:35:43;;;;;;;;;;;;;;;-140.72;100.00;52494.34;4973237;28;20373;-74
2022/08/01 08:38:08;;;;;;;;;;;;;;;-140.72;100.00;52467.97;4972249;28;20374;-73
2022/08/01 08:40:35;;;;;;;;;;;;;;;-140.72;100.00;52496.38;4957066;29;19926;-73
2022/08/01 08:43:00;;;;;;;;;;;;;;;-140.72;100.00;52482.16;4972673;28;19932;-73
2022/08/01 08:45:26;;;;;;;;;;;;;;;-140.72;100.00;52480.16;4975602;28;19922;-73
2022/08/01 08:47:52;;;;;;;;;;;;;;;-140.72;100.00;52447.69;4962606;28;19926;-72
2022/08/01 08:50:17;;;;;;;;;;;;;;;-140.72;100.00;52439.56;4988283;28;19922;-73
2022/08/01 08:52:43;;;;;;;;;;;;;;;-140.72;100.00;52394.91;4975913;28;19998;-72
2022/08/01 08:55:08;;;;;;;;;;;;;;;-140.72;100.00;52380.72;4976694;28;19957;-72
2022/08/01 08:57:34;;;;;;;;;;;;;;;-140.72;100.00;52360.44;4977046;28;19938;-73
2022/08/01 08:59:59;;;;;;;;;;;;;;;-140.72;100.00;52374.63;4999921;28;19917;-73
2022/08/01 09:02:25;;;;;;;;;;;;;;;-140.72;100.00;52394.91;4990095;28;19918;-75
2022/08/01 09:04:50;;;;;;;;;;;;;;;-140.72;100.00;52372.59;4979079;28;19935;-73
2022/08/01 09:07:16;;;;;;;;;;;;;;;-140.72;100.00;52321.88;4988751;28;19918;-72
2022/08/01 09:09:41;;;;;;;;;;;;;;;-140.72;100.00;52378.69;4978768;28;20298;-73
2022/08/01 09:12:06;;;;;;;;;;;;;;;-140.72;100.00;52307.66;4983597;28;19921;-70
2022/08/01 09:14:32;;;;;;;;;;;;;;;-140.72;100.00;52354.34;4992745;28;19949;-72
2022/08/01 09:17:06;;;;;;;;;;;;;;;-140.72;100.00;52350.28;4996950;28;19929;-75
2022/08/01 09:19:36;;;;;;;;;;;;;;;-140.72;100.00;52352.31;4997999;28;19965;-72
2022/08/01 09:22:03;;;;;;;;;;;;;;;-140.72;100.00;52364.47;4984749;28;19923;-71
2022/08/01 09:24:29;;;;;;;;;;;;;;;-140.72;100.00;52405.06;4980038;28;20286;-73
2022/08/01 09:26:54;;;;;;;;;;;;;;;-140.72;100.00;52415.22;4976946;28;20018;-72
2022/08/01 09:29:22;;;;;;;;;;;;;;;-140.72;100.00;52401.00;4983057;28;20386;-74
2022/08/01 09:31:49;;;;;;;;;;;;;;;-140.72;100.00;52407.09;4983281;28;20398;-71
2022/08/01 09:34:14;;;;;;;;;;;;;;;-140.72;100.00;52388.84;4993224;28;19922;-72
2022/08/01 09:36:51;;;;;;;;;;;;;;;-140.72;100.00;52376.66;4973463;28;20057;-71
2022/08/01 09:39:16;;;;;;;;;;;;;;;-140.72;100.00;52352.31;4968443;28;19919;-71
2022/08/01 09:41:42;;;;;;;;;;;;;;;-140.72;100.00;52303.59;4975157;28;19925;-71
2022/08/01 09:44:07;;;;;;;;;;;;;;;-140.72;100.00;52358.41;4967671;28;19919;-71
2022/08/01 09:46:32;;;;;;;;;;;;;;;-140.72;100.00;52356.38;4971062;28;19984;-71
2022/08/01 09:48:57;;;;;;;;;;;;;;;-140.72;100.00;52360.44;4984412;28;19922;-71
2022/08/01 09:51:30;;;;;;;;;;;;;;;-140.72;100.00;52370.56;4976171;28;20405;-71
2022/08/01 09:53:55;;;;;;;;;;;;;;;-140.72;100.00;52323.91;4983740;28;19918;-71
2022/08/01 09:56:21;;;;;;;;;;;;;;;-140.72;100.00;52271.16;4965844;28;19946;-72
2022/08/01 09:58:54;;;;;;;;;;;;;;;-140.72;100.00;52281.28;4982352;28;19964;-72
2022/08/01 10:01:22;;;;;;;;;;;;;;;-140.72;100.00;52313.75;4986076;28;20010;-72
2022/08/01 10:04:03;;;;;;;;;;;;;;;-140.72;100.00;52323.91;4968589;28;19918;-72
2022/08/01 10:06:28;;;;;;;;;;;;;;;-140.72;100.00;52261.00;4986978;28;19925;-72
2022/08/01 10:08:53;;;;;;;;;;;;;;;-140.72;100.00;52242.75;4977634;28;19922;-72
2022/08/01 10:11:21;;;;;;;;;;;;;;;-140.72;100.00;52250.84;4986568;28;20013;-72
2022/08/01 10:13:47;;;;;;;;;;;;;;;-140.72;63.49;52200.13;4974585;28;20401;-72
2022/08/01 10:16:12;;;;;;;;;;;;;;;-140.72;18.13;52198.09;4978401;28;19918;-72
2022/08/01 10:18:40;;;;;;;;;;;;;;;-140.72;25.34;52192.00;4977582;28;19922;-72
2022/08/01 10:21:05;;;;;;;;;;;;;;;-140.72;0.00;52159.56;4977532;28;20400;-71
2022/08/01 10:23:34;;;;;;;;;;;;;;;-140.72;0.00;52177.81;4987827;28;19969;-72
2022/08/01 10:26:00;;;;;;;;;;;;;;;-140.72;0.00;52212.31;4971777;28;19924;-72
2022/08/01 10:28:25;;;;;;;;;;;;;;;-140.72;0.00;52147.38;4970124;28;20005;-72
2022/08/01 10:30:51;;;;;;;;;;;;;;;-140.72;0.00;52175.78;4975063;28;19953;-72
2022/08/01 10:33:17;;;;;;;;;;;;;;;-140.72;0.00;52222.44;4975966;28;19918;-72
2022/08/01 10:35:45;;;;;;;;;;;;;;;-140.72;0.00;52230.56;4968045;28;20365;-71
2022/08/01 10:38:10;;;;;;;;;;;;;;;-140.72;0.00;52214.34;4974609;28;19960;-72
2022/08/01 10:40:36;;;;;;;;;;;;;;;-140.72;0.00;52250.84;4982307;28;20381;-71
2022/08/01 10:43:02;;;;;;;;;;;;;;;-140.72;0.00;52271.16;4973305;28;20345;-72
2022/08/01 10:45:28;;;;;;;;;;;;;;;-140.72;0.00;52269.13;4958309;28;19918;-72
2022/08/01 10:48:02;;;;;;;;;;;;;;;-140.72;0.00;52222.44;4958041;28;19996;-72
2022/08/01 10:50:37;;;;;;;;;;;;;;;-140.72;0.00;52200.13;4984691;28;20326;-72
2022/08/01 10:53:17;;;;;;;;;;;;;;;-140.72;0.00;52232.59;4991588;28;19977;-71
2022/08/01 10:55:46;;;;;;;;;;;;;;;-140.72;0.00;52208.25;4967152;28;19966;-72
2022/08/01 10:58:11;;;;;;;;;;;;;;;-140.72;0.00;52232.59;4989379;28;19964;-72
2022/08/01 11:00:36;;;;;;;;;;;;;;;-140.72;0.00;52301.59;4987911;28;20297;-72
2022/08/01 11:03:03;;;;;;;;;;;;;;;-140.72;0.00;52256.94;4989573;28;19918;-72
2022/08/01 11:05:31;;;;;;;;;;;;;;;-140.72;0.00;52236.66;4976433;28;19919;-72
2022/08/01 11:07:58;;;;;;;;;;;;;;;-140.72;0.00;52285.34;4975290;28;19918;-72
2022/08/01 11:10:26;;;;;;;;;;;;;;;-140.72;0.00;52230.56;4976485;28;19957;-72
2022/08/01 11:12:52;;;;;;;;;;;;;;;-140.72;0.00;52281.28;4975265;28;19972;-72
2022/08/01 11:15:24;;;;;;;;;;;;;;;-140.72;0.00;52273.19;4986488;28;20441;-72
2022/08/01 11:17:51;;;;;;;;;;;;;;;-140.72;0.00;52313.75;4985217;28;19918;-72
2022/08/01 11:20:16;;;;;;;;;;;;;;;-140.72;0.00;52344.19;4975120;28;19918;-72
2022/08/01 11:23:06;;;;;;;;;;;;;;;-140.72;21.51;52366.50;4994850;28;19924;-72
2022/08/01 11:25:37;;;;;;;;;;;;;;;-140.72;32.55;52338.09;4989770;28;19922;-71
2022/08/01 11:28:17;;;;;;;;;;;;;;;-140.72;22.47;52236.66;4976597;28;19969;-71
2022/08/01 11:30:43;;;;;;;;;;;;;;;-140.72;0.00;52212.31;4981404;28;19918;-71
2022/08/01 11:33:09;;;;;;;;;;;;;;;-140.72;0.00;52114.91;4990690;28;20033;-73
2022/08/01 11:35:35;;;;;;;;;;;;;;;-140.72;0.00;52129.13;4975555;28;20276;-72
2022/08/01 11:38:18;;;;;;;;;;;;;;;-140.72;0.00;52135.19;4974935;28;19919;-72
2022/08/01 11:40:44;;;;;;;;;;;;;;;-140.72;0.00;52232.59;4974949;28;19969;-72
2022/08/01 11:43:16;;;;;;;;;;;;;;;-140.72;0.00;52263.03;4973135;28;20008;-72
2022/08/01 11:45:52;;;;;;;;;;;;;;;-140.72;0.00;52256.94;4958237;28;19918;-72
2022/08/01 11:48:19;;;;;;;;;;;;;;;-140.72;0.00;52200.13;4964647;28;19926;-71
2022/08/01 11:50:45;;;;;;;;;;;;;;;-140.72;0.00;52135.19;4977416;28;19926;-72
2022/08/01 11:53:10;;;;;;;;;;;;;;;-140.72;0.00;52009.41;4986263;28;19917;-72
2022/08/01 11:55:35;;;;;;;;;;;;;;;-140.72;0.00;51954.63;4960942;28;19954;-72
2022/08/01 11:58:02;;;;;;;;;;;;;;;-140.72;0.00;51958.69;4958702;28;19970;-70
2022/08/01 12:00:27;;;;;;;;;;;;;;;-140.72;0.00;51847.09;4974788;28;19918;-72
2022/08/01 12:03:00;;;;;;;;;;;;;;;-140.72;0.00;51788.25;4984249;28;19918;-72
2022/08/01 12:05:28;;;;;;;;;;;;;;;-140.72;0.00;51765.94;4968097;28;19926;-71
2022/08/01 12:07:54;;;;;;;;;;;;;;;-140.72;0.00;51806.53;4988554;28;19918;-70
2022/08/01 12:10:20;;;;;;;;;;;;;;;-140.72;0.00;51944.47;4962221;28;19922;-70
2022/08/01 12:12:48;;;;;;;;;;;;;;;-140.72;0.00;52080.41;4962240;28;19961;-71
2022/08/01 12:15:13;;;;;;;;;;;;;;;-140.72;0.00;52116.94;4974747;28;19964;-72
2022/08/01 12:17:43;;;;;;;;;;;;;;;-140.72;0.00;52062.16;4956654;28;19962;-73
2022/08/01 12:20:09;;;;;;;;;;;;;;;-140.72;0.00;52070.28;4968186;28;20449;-72
2022/08/01 12:22:35;;;;;;;;;;;;;;;-140.72;0.00;51983.03;4968248;28;20013;-72
2022/08/01 12:25:07;;;;;;;;;;;;;;;-140.72;0.00;52033.75;4956889;28;20405;-73
2022/08/01 12:27:32;;;;;;;;;;;;;;;-140.72;0.00;52102.75;4964558;28;20116;-72
2022/08/01 12:29:58;;;;;;;;;;;;;;;-140.72;0.00;52114.91;4975667;28;20354;-72
2022/08/01 12:32:24;;;;;;;;;;;;;;;-140.72;0.00;52212.31;4984916;28;19922;-72
2022/08/01 12:34:51;;;;;;;;;;;;;;;-140.72;0.00;52224.47;4982375;28;19918;-72
2022/08/01 12:37:16;;;;;;;;;;;;;;;-140.72;0.00;52258.97;4981041;28;19918;-72
2022/08/01 12:39:41;;;;;;;;;;;;;;;-140.72;0.00;52198.09;4979627;28;19925;-72
2022/08/01 12:42:10;;;;;;;;;;;;;;;-140.72;0.00;52175.78;4981264;28;19926;-72
2022/08/01 12:44:36;;;;;;;;;;;;;;;-140.72;0.00;52143.31;4981711;28;19918;-72